createdAt,value
2023-04-09T00:00:28.492Z,1027.53
2023-04-09T00:00:59.443Z,1027.52
2023-04-09T00:02:01.300Z,1027.52
2023-04-09T00:02:32.367Z,1027.52
2023-04-09T00:03:02.918Z,1027.53
2023-04-09T00:03:33.543Z,1027.53
2023-04-09T00:04:04.136Z,1027.53
2023-04-09T00:04:34.636Z,1027.53
2023-04-09T00:05:05.543Z,1027.53
2023-04-09T00:05:36.483Z,1027.53
2023-04-09T00:06:07.404Z,1027.53
2023-04-09T00:06:38.332Z,1027.52
2023-04-09T00:07:09.248Z,1027.52
2023-04-09T00:07:40.167Z,1027.52
2023-04-09T00:08:11.101Z,1027.52
2023-04-09T00:08:42.047Z,1027.51
2023-04-09T00:09:12.939Z,1027.51
2023-04-09T00:09:43.818Z,1027.51
2023-04-09T00:10:14.758Z,1027.51
2023-04-09T00:10:45.683Z,1027.50
2023-04-09T00:11:16.615Z,1027.50
2023-04-09T00:11:47.544Z,1027.49
2023-04-09T00:12:18.447Z,1027.48
2023-04-09T00:12:49.360Z,1027.48
2023-04-09T00:13:25.465Z,1027.47
2023-04-09T00:13:51.089Z,1027.47
2023-04-09T00:14:21.999Z,1027.47
2023-04-09T00:14:52.956Z,1027.46
2023-04-09T00:15:30.757Z,1027.46
2023-04-09T00:15:54.739Z,1027.46
2023-04-09T00:16:25.651Z,1027.46
2023-04-09T00:16:56.641Z,1027.46
2023-04-09T00:17:27.577Z,1027.45
2023-04-09T00:17:58.664Z,1027.44
2023-04-09T00:18:29.173Z,1027.44
2023-04-09T00:19:30.995Z,1027.42
2023-04-09T00:20:01.917Z,1027.42
2023-04-09T00:20:32.835Z,1027.41
2023-04-09T00:21:03.740Z,1027.41
2023-04-09T00:21:34.654Z,1027.40
2023-04-09T00:22:05.614Z,1027.39
2023-04-09T00:22:36.544Z,1027.39
2023-04-09T00:23:07.473Z,1027.38
2023-04-09T00:23:38.373Z,1027.38
2023-04-09T00:24:09.330Z,1027.37
2023-04-09T00:24:40.235Z,1027.37
2023-04-09T00:25:11.193Z,1027.37
2023-04-09T00:25:42.084Z,1027.37
2023-04-09T00:26:13.036Z,1027.36
2023-04-09T00:26:43.940Z,1027.37
2023-04-09T00:27:14.873Z,1027.36
2023-04-09T00:27:45.824Z,1027.35
2023-04-09T00:28:16.724Z,1027.35
2023-04-09T00:28:47.614Z,1027.35
2023-04-09T00:29:18.529Z,1027.35
2023-04-09T00:29:49.426Z,1027.35
2023-04-09T00:30:20.333Z,1027.35
2023-04-09T00:30:51.261Z,1027.35
2023-04-09T00:31:22.191Z,1027.34
2023-04-09T00:31:53.141Z,1027.35
2023-04-09T00:32:24.092Z,1027.35
2023-04-09T00:32:55.199Z,1027.35
2023-04-09T00:33:25.582Z,1027.35
2023-04-09T00:33:56.508Z,1027.34
2023-04-09T00:34:27.434Z,1027.34
2023-04-09T00:34:58.365Z,1027.33
2023-04-09T00:35:29.273Z,1027.33
2023-04-09T00:36:00.279Z,1027.33
2023-04-09T00:37:02.084Z,1027.33
2023-04-09T00:37:32.989Z,1027.34
2023-04-09T00:38:03.898Z,1027.34
2023-04-09T00:38:34.830Z,1027.34
2023-04-09T00:39:05.746Z,1027.34
2023-04-09T00:39:36.700Z,1027.34
2023-04-09T00:40:07.651Z,1027.34
2023-04-09T00:40:38.559Z,1027.34
2023-04-09T00:41:09.460Z,1027.34
2023-04-09T00:41:40.382Z,1027.34
2023-04-09T00:42:11.271Z,1027.34
2023-04-09T00:42:42.167Z,1027.35
2023-04-09T00:43:13.086Z,1027.34
2023-04-09T00:43:43.988Z,1027.34
2023-04-09T00:44:14.877Z,1027.34
2023-04-09T00:44:45.817Z,1027.33
2023-04-09T00:45:16.720Z,1027.33
2023-04-09T00:45:47.656Z,1027.33
2023-04-09T00:46:18.623Z,1027.33
2023-04-09T00:46:49.587Z,1027.33
2023-04-09T00:47:20.517Z,1027.34
2023-04-09T00:47:51.445Z,1027.33
2023-04-09T00:48:22.366Z,1027.34
2023-04-09T00:48:53.480Z,1027.34
2023-04-09T00:49:23.940Z,1027.35
2023-04-09T00:49:54.854Z,1027.35
2023-04-09T00:50:25.887Z,1027.34
2023-04-09T00:50:56.347Z,1027.34
2023-04-09T00:51:27.259Z,1027.35
2023-04-09T00:51:58.182Z,1027.35
2023-04-09T00:52:29.113Z,1027.36
2023-04-09T00:53:00.003Z,1027.35
2023-04-09T00:53:30.967Z,1027.35
2023-04-09T00:54:32.772Z,1027.36
2023-04-09T00:55:03.707Z,1027.36
2023-04-09T00:55:34.601Z,1027.36
2023-04-09T00:56:05.548Z,1027.36
2023-04-09T00:56:36.460Z,1027.36
2023-04-09T00:57:07.383Z,1027.37
2023-04-09T00:57:38.276Z,1027.37
2023-04-09T00:58:09.193Z,1027.37
2023-04-09T00:58:40.170Z,1027.37
2023-04-09T00:59:11.083Z,1027.37
2023-04-09T00:59:42.009Z,1027.37
2023-04-09T01:00:12.902Z,1027.37
2023-04-09T01:00:43.834Z,1027.37
2023-04-09T01:01:14.825Z,1027.37
2023-04-09T01:01:45.298Z,1027.37
2023-04-09T01:02:16.275Z,1027.37
2023-04-09T01:02:47.331Z,1027.36
2023-04-09T01:03:17.973Z,1027.36
2023-04-09T01:03:48.955Z,1027.35
2023-04-09T01:04:19.840Z,1027.35
2023-04-09T01:04:50.733Z,1027.35
2023-04-09T01:05:21.640Z,1027.35
2023-04-09T01:05:52.579Z,1027.34
2023-04-09T01:06:23.529Z,1027.35
2023-04-09T01:07:25.364Z,1027.35
2023-04-09T01:07:56.273Z,1027.35
2023-04-09T01:08:27.211Z,1027.34
2023-04-09T01:08:58.094Z,1027.34
2023-04-09T01:09:29.077Z,1027.34
2023-04-09T01:09:59.981Z,1027.33
2023-04-09T01:10:30.934Z,1027.33
2023-04-09T01:11:01.829Z,1027.32
2023-04-09T01:12:03.718Z,1027.32
2023-04-09T01:12:34.615Z,1027.32
2023-04-09T01:13:05.505Z,1027.32
2023-04-09T01:13:36.430Z,1027.32
2023-04-09T01:14:07.360Z,1027.33
2023-04-09T01:14:37.965Z,1027.32
2023-04-09T01:15:08.912Z,1027.32
2023-04-09T01:15:39.823Z,1027.32
2023-04-09T01:16:10.772Z,1027.32
2023-04-09T01:16:41.691Z,1027.32
2023-04-09T01:17:12.582Z,1027.31
2023-04-09T01:17:43.509Z,1027.32
2023-04-09T01:18:14.453Z,1027.32
2023-04-09T01:18:45.354Z,1027.32
2023-04-09T01:19:16.296Z,1027.32
2023-04-09T01:19:47.190Z,1027.31
2023-04-09T01:20:18.142Z,1027.31
2023-04-09T01:20:49.074Z,1027.31
2023-04-09T01:21:19.993Z,1027.32
2023-04-09T01:21:50.909Z,1027.31
2023-04-09T01:22:21.865Z,1027.31
2023-04-09T01:22:52.756Z,1027.31
2023-04-09T01:23:23.669Z,1027.31
2023-04-09T01:23:54.572Z,1027.31
2023-04-09T01:24:25.464Z,1027.31
2023-04-09T01:24:56.402Z,1027.31
2023-04-09T01:25:27.353Z,1027.31
2023-04-09T01:25:58.290Z,1027.31
2023-04-09T01:26:29.183Z,1027.31
2023-04-09T01:27:00.102Z,1027.31
2023-04-09T01:27:31.049Z,1027.31
2023-04-09T01:28:01.974Z,1027.31
2023-04-09T01:28:32.876Z,1027.31
2023-04-09T01:29:34.736Z,1027.31
2023-04-09T01:30:05.639Z,1027.31
2023-04-09T01:30:36.577Z,1027.32
2023-04-09T01:31:07.577Z,1027.31
2023-04-09T01:31:38.085Z,1027.31
2023-04-09T01:32:09.003Z,1027.31
2023-04-09T01:32:39.922Z,1027.31
2023-04-09T01:33:10.849Z,1027.31
2023-04-09T01:33:41.754Z,1027.31
2023-04-09T01:34:12.673Z,1027.31
2023-04-09T01:34:43.566Z,1027.31
2023-04-09T01:35:14.450Z,1027.31
2023-04-09T01:35:45.378Z,1027.30
2023-04-09T01:36:16.283Z,1027.31
2023-04-09T01:36:47.187Z,1027.31
2023-04-09T01:37:18.136Z,1027.32
2023-04-09T01:37:49.057Z,1027.32
2023-04-09T01:38:19.963Z,1027.33
2023-04-09T01:38:51.080Z,1027.33
2023-04-09T01:39:21.721Z,1027.34
2023-04-09T01:39:52.678Z,1027.35
2023-04-09T01:40:23.615Z,1027.35
2023-04-09T01:40:54.511Z,1027.36
2023-04-09T01:41:25.426Z,1027.36
2023-04-09T01:41:56.305Z,1027.36
2023-04-09T01:42:27.226Z,1027.36
2023-04-09T01:42:58.155Z,1027.36
2023-04-09T01:43:29.053Z,1027.36
2023-04-09T01:43:59.953Z,1027.36
2023-04-09T01:44:30.897Z,1027.36
2023-04-09T01:45:01.827Z,1027.37
2023-04-09T01:45:32.743Z,1027.37
2023-04-09T01:46:03.715Z,1027.37
2023-04-09T01:47:05.531Z,1027.38
2023-04-09T01:47:36.447Z,1027.39
2023-04-09T01:48:07.388Z,1027.39
2023-04-09T01:48:38.282Z,1027.39
2023-04-09T01:49:09.203Z,1027.39
2023-04-09T01:49:40.110Z,1027.39
2023-04-09T01:50:11.021Z,1027.39
2023-04-09T01:50:41.951Z,1027.38
2023-04-09T01:51:12.881Z,1027.39
2023-04-09T01:51:43.840Z,1027.39
2023-04-09T01:52:14.758Z,1027.39
2023-04-09T01:52:45.662Z,1027.39
2023-04-09T01:53:16.587Z,1027.39
2023-04-09T01:53:47.489Z,1027.40
2023-04-09T01:54:18.468Z,1027.39
2023-04-09T01:54:49.377Z,1027.38
2023-04-09T01:55:20.269Z,1027.38
2023-04-09T01:55:51.177Z,1027.38
2023-04-09T01:56:22.092Z,1027.38
2023-04-09T01:56:53.050Z,1027.37
2023-04-09T01:57:23.943Z,1027.37
2023-04-09T01:57:54.835Z,1027.37
2023-04-09T01:58:25.744Z,1027.37
2023-04-09T01:58:56.675Z,1027.37
2023-04-09T01:59:27.579Z,1027.37
2023-04-09T01:59:58.476Z,1027.37
2023-04-09T02:00:29.371Z,1027.38
2023-04-09T02:01:00.312Z,1027.38
2023-04-09T02:01:31.292Z,1027.38
2023-04-09T02:02:01.753Z,1027.39
2023-04-09T02:02:32.828Z,1027.39
2023-04-09T02:03:03.345Z,1027.39
2023-04-09T02:03:34.074Z,1027.39
2023-04-09T02:04:04.706Z,1027.39
2023-04-09T02:04:35.153Z,1027.38
2023-04-09T02:05:06.056Z,1027.38
2023-04-09T02:05:36.971Z,1027.38
2023-04-09T02:06:07.882Z,1027.37
2023-04-09T02:06:38.810Z,1027.37
2023-04-09T02:07:09.735Z,1027.37
2023-04-09T02:07:40.635Z,1027.37
2023-04-09T02:08:11.586Z,1027.37
2023-04-09T02:08:42.509Z,1027.37
2023-04-09T02:09:13.418Z,1027.37
2023-04-09T02:09:44.332Z,1027.38
2023-04-09T02:10:15.244Z,1027.38
2023-04-09T02:10:46.133Z,1027.38
2023-04-09T02:11:17.044Z,1027.38
2023-04-09T02:11:47.963Z,1027.38
2023-04-09T02:12:18.930Z,1027.38
2023-04-09T02:12:49.830Z,1027.39
2023-04-09T02:13:20.740Z,1027.39
2023-04-09T02:13:51.677Z,1027.39
2023-04-09T02:14:22.565Z,1027.39
2023-04-09T02:14:53.511Z,1027.38
2023-04-09T02:15:24.405Z,1027.39
2023-04-09T02:15:55.328Z,1027.38
2023-04-09T02:16:26.259Z,1027.38
2023-04-09T02:17:28.083Z,1027.37
2023-04-09T02:17:59.017Z,1027.37
2023-04-09T02:18:29.940Z,1027.37
2023-04-09T02:19:00.894Z,1027.37
2023-04-09T02:19:31.816Z,1027.37
2023-04-09T02:20:02.715Z,1027.36
2023-04-09T02:20:33.645Z,1027.36
2023-04-09T02:21:04.552Z,1027.36
2023-04-09T02:21:35.459Z,1027.35
2023-04-09T02:22:06.357Z,1027.35
2023-04-09T02:22:37.293Z,1027.34
2023-04-09T02:23:08.225Z,1027.33
2023-04-09T02:23:39.155Z,1027.33
2023-04-09T02:24:10.092Z,1027.33
2023-04-09T02:24:40.984Z,1027.32
2023-04-09T02:25:11.914Z,1027.32
2023-04-09T02:25:42.831Z,1027.32
2023-04-09T02:26:13.801Z,1027.32
2023-04-09T02:26:44.753Z,1027.32
2023-04-09T02:27:15.682Z,1027.32
2023-04-09T02:27:46.692Z,1027.32
2023-04-09T02:28:17.083Z,1027.32
2023-04-09T02:28:47.993Z,1027.31
2023-04-09T02:29:18.885Z,1027.31
2023-04-09T02:29:49.802Z,1027.31
2023-04-09T02:30:20.699Z,1027.31
2023-04-09T02:30:51.719Z,1027.32
2023-04-09T02:31:22.220Z,1027.32
2023-04-09T02:31:53.163Z,1027.32
2023-04-09T02:32:24.128Z,1027.33
2023-04-09T02:32:55.147Z,1027.32
2023-04-09T02:33:26.044Z,1027.33
2023-04-09T02:33:56.982Z,1027.33
2023-04-09T02:34:58.793Z,1027.34
2023-04-09T02:35:29.725Z,1027.34
2023-04-09T02:36:00.704Z,1027.34
2023-04-09T02:36:31.619Z,1027.34
2023-04-09T02:37:02.504Z,1027.34
2023-04-09T02:37:33.449Z,1027.35
2023-04-09T02:38:04.386Z,1027.35
2023-04-09T02:38:35.324Z,1027.35
2023-04-09T02:39:06.248Z,1027.35
2023-04-09T02:39:37.156Z,1027.35
2023-04-09T02:40:08.056Z,1027.35
2023-04-09T02:40:38.968Z,1027.35
2023-04-09T02:41:09.944Z,1027.35
2023-04-09T02:41:40.879Z,1027.35
2023-04-09T02:42:11.767Z,1027.35
2023-04-09T02:42:42.688Z,1027.35
2023-04-09T02:43:13.659Z,1027.36
2023-04-09T02:43:44.568Z,1027.36
2023-04-09T02:44:15.451Z,1027.36
2023-04-09T02:44:46.348Z,1027.37
2023-04-09T02:45:17.249Z,1027.37
2023-04-09T02:45:48.158Z,1027.37
2023-04-09T02:46:19.081Z,1027.38
2023-04-09T02:46:50.038Z,1027.37
2023-04-09T02:47:20.999Z,1027.37
2023-04-09T02:47:51.929Z,1027.37
2023-04-09T02:48:22.820Z,1027.37
2023-04-09T02:48:53.885Z,1027.37
2023-04-09T02:49:24.411Z,1027.36
2023-04-09T02:49:55.319Z,1027.36
2023-04-09T02:50:27.361Z,1027.36
2023-04-09T02:50:56.902Z,1027.35
2023-04-09T02:51:27.836Z,1027.34
2023-04-09T02:52:29.657Z,1027.34
2023-04-09T02:53:00.555Z,1027.34
2023-04-09T02:53:31.533Z,1027.34
2023-04-09T02:54:02.441Z,1027.33
2023-04-09T02:54:33.370Z,1027.33
2023-04-09T02:55:04.274Z,1027.33
2023-04-09T02:55:35.161Z,1027.33
2023-04-09T02:56:06.105Z,1027.33
2023-04-09T02:56:37.050Z,1027.32
2023-04-09T02:57:07.980Z,1027.32
2023-04-09T02:57:38.898Z,1027.31
2023-04-09T02:58:09.805Z,1027.30
2023-04-09T02:58:40.747Z,1027.30
2023-04-09T02:59:11.663Z,1027.30
2023-04-09T02:59:42.588Z,1027.29
2023-04-09T03:00:13.524Z,1027.28
2023-04-09T03:00:44.426Z,1027.28
2023-04-09T03:01:15.351Z,1027.27
2023-04-09T03:01:46.365Z,1027.27
2023-04-09T03:02:16.869Z,1027.27
2023-04-09T03:02:47.453Z,1027.27
2023-04-09T03:03:18.053Z,1027.26
2023-04-09T03:03:48.600Z,1027.26
2023-04-09T03:04:19.147Z,1027.26
2023-04-09T03:04:49.633Z,1027.26
2023-04-09T03:05:20.533Z,1027.26
2023-04-09T03:05:51.463Z,1027.26
2023-04-09T03:06:22.373Z,1027.26
2023-04-09T03:06:53.310Z,1027.25
2023-04-09T03:07:24.241Z,1027.25
2023-04-09T03:07:55.168Z,1027.25
2023-04-09T03:08:26.094Z,1027.24
2023-04-09T03:08:57.021Z,1027.24
2023-04-09T03:09:27.954Z,1027.23
2023-04-09T03:09:58.849Z,1027.22
2023-04-09T03:10:29.751Z,1027.22
2023-04-09T03:11:00.656Z,1027.21
2023-04-09T03:11:31.590Z,1027.20
2023-04-09T03:12:02.497Z,1027.20
2023-04-09T03:12:33.392Z,1027.19
2023-04-09T03:13:04.385Z,1027.19
2023-04-09T03:13:35.275Z,1027.19
2023-04-09T03:14:06.207Z,1027.19
2023-04-09T03:14:37.096Z,1027.18
2023-04-09T03:15:08.009Z,1027.18
2023-04-09T03:15:38.980Z,1027.18
2023-04-09T03:16:09.885Z,1027.18
2023-04-09T03:16:40.799Z,1027.18
2023-04-09T03:17:11.746Z,1027.18
2023-04-09T03:17:42.650Z,1027.18
2023-04-09T03:18:13.551Z,1027.19
2023-04-09T03:18:44.434Z,1027.19
2023-04-09T03:19:15.344Z,1027.18
2023-04-09T03:19:46.275Z,1027.18
2023-04-09T03:20:17.208Z,1027.18
2023-04-09T03:20:48.142Z,1027.18
2023-04-09T03:21:19.052Z,1027.18
2023-04-09T03:21:49.979Z,1027.18
2023-04-09T03:22:51.851Z,1027.17
2023-04-09T03:23:22.757Z,1027.17
2023-04-09T03:23:53.697Z,1027.16
2023-04-09T03:24:24.600Z,1027.16
2023-04-09T03:24:55.520Z,1027.15
2023-04-09T03:25:26.430Z,1027.15
2023-04-09T03:25:57.471Z,1027.14
2023-04-09T03:26:28.393Z,1027.14
2023-04-09T03:26:59.318Z,1027.14
2023-04-09T03:27:30.255Z,1027.13
2023-04-09T03:28:01.147Z,1027.12
2023-04-09T03:28:32.121Z,1027.11
2023-04-09T03:29:03.036Z,1027.10
2023-04-09T03:29:33.973Z,1027.08
2023-04-09T03:30:04.872Z,1027.07
2023-04-09T03:30:35.781Z,1027.05
2023-04-09T03:31:06.744Z,1027.03
2023-04-09T03:31:37.725Z,1027.02
2023-04-09T03:32:08.222Z,1027.02
2023-04-09T03:32:39.170Z,1027.01
2023-04-09T03:33:09.632Z,1027.02
2023-04-09T03:33:40.565Z,1027.02
2023-04-09T03:34:11.482Z,1027.03
2023-04-09T03:34:42.399Z,1027.04
2023-04-09T03:35:13.326Z,1027.04
2023-04-09T03:35:44.312Z,1027.05
2023-04-09T03:36:15.225Z,1027.05
2023-04-09T03:36:46.122Z,1027.05
2023-04-09T03:37:17.065Z,1027.04
2023-04-09T03:37:47.996Z,1027.04
2023-04-09T03:38:18.921Z,1027.03
2023-04-09T03:38:50.135Z,1027.03
2023-04-09T03:39:20.778Z,1027.03
2023-04-09T03:40:22.618Z,1027.04
2023-04-09T03:40:53.545Z,1027.03
2023-04-09T03:41:24.457Z,1027.03
2023-04-09T03:41:55.398Z,1027.03
2023-04-09T03:42:26.324Z,1027.03
2023-04-09T03:42:57.243Z,1027.03
2023-04-09T03:43:28.176Z,1027.03
2023-04-09T03:43:59.072Z,1027.03
2023-04-09T03:44:29.971Z,1027.03
2023-04-09T03:45:00.895Z,1027.03
2023-04-09T03:45:31.807Z,1027.02
2023-04-09T03:46:02.711Z,1027.02
2023-04-09T03:46:33.694Z,1027.02
2023-04-09T03:47:04.155Z,1027.02
2023-04-09T03:47:35.132Z,1027.01
2023-04-09T03:48:06.039Z,1027.01
2023-04-09T03:48:36.927Z,1027.01
2023-04-09T03:49:07.826Z,1027.01
2023-04-09T03:49:38.760Z,1027.01
2023-04-09T03:50:09.682Z,1027.01
2023-04-09T03:50:40.606Z,1027.02
2023-04-09T03:51:11.536Z,1027.02
2023-04-09T03:51:42.433Z,1027.02
2023-04-09T03:52:13.338Z,1027.02
2023-04-09T03:52:44.282Z,1027.03
2023-04-09T03:53:15.192Z,1027.03
2023-04-09T03:53:46.118Z,1027.03
2023-04-09T03:54:17.025Z,1027.04
2023-04-09T03:54:47.946Z,1027.04
2023-04-09T03:55:18.870Z,1027.05
2023-04-09T03:55:49.798Z,1027.05
2023-04-09T03:56:20.708Z,1027.06
2023-04-09T03:56:51.601Z,1027.06
2023-04-09T03:57:53.402Z,1027.06
2023-04-09T03:58:24.305Z,1027.07
2023-04-09T03:58:55.366Z,1027.07
2023-04-09T03:59:25.816Z,1027.07
2023-04-09T03:59:56.741Z,1027.08
2023-04-09T04:00:27.654Z,1027.08
2023-04-09T04:00:58.569Z,1027.09
2023-04-09T04:01:29.502Z,1027.09
2023-04-09T04:02:00.494Z,1027.10
2023-04-09T04:02:31.017Z,1027.10
2023-04-09T04:03:01.713Z,1027.10
2023-04-09T04:03:32.576Z,1027.10
2023-04-09T04:04:03.153Z,1027.10
2023-04-09T04:04:34.149Z,1027.10
2023-04-09T04:05:04.696Z,1027.09
2023-04-09T04:06:06.530Z,1027.11
2023-04-09T04:06:37.447Z,1027.11
2023-04-09T04:07:08.382Z,1027.11
2023-04-09T04:07:39.278Z,1027.12
2023-04-09T04:08:10.202Z,1027.12
2023-04-09T04:08:41.128Z,1027.13
2023-04-09T04:09:12.051Z,1027.13
2023-04-09T04:09:42.979Z,1027.13
2023-04-09T04:10:13.898Z,1027.13
2023-04-09T04:10:44.850Z,1027.14
2023-04-09T04:11:15.770Z,1027.15
2023-04-09T04:11:46.693Z,1027.15
2023-04-09T04:12:17.614Z,1027.15
2023-04-09T04:12:48.602Z,1027.16
2023-04-09T04:13:19.560Z,1027.16
2023-04-09T04:13:50.479Z,1027.17
2023-04-09T04:14:21.323Z,1027.17
2023-04-09T04:14:52.238Z,1027.17
2023-04-09T04:15:23.132Z,1027.18
2023-04-09T04:15:54.158Z,1027.18
2023-04-09T04:16:24.596Z,1027.18
2023-04-09T04:16:55.532Z,1027.18
2023-04-09T04:17:26.416Z,1027.18
2023-04-09T04:17:57.292Z,1027.18
2023-04-09T04:18:28.167Z,1027.17
2023-04-09T04:18:59.057Z,1027.17
2023-04-09T04:19:29.967Z,1027.16
2023-04-09T04:20:00.857Z,1027.16
2023-04-09T04:20:31.762Z,1027.16
2023-04-09T04:21:02.644Z,1027.16
2023-04-09T04:21:33.508Z,1027.15
2023-04-09T04:22:04.386Z,1027.15
2023-04-09T04:22:35.252Z,1027.15
2023-04-09T04:23:37.054Z,1027.14
2023-04-09T04:24:07.921Z,1027.14
2023-04-09T04:24:38.773Z,1027.14
2023-04-09T04:25:09.629Z,1027.14
2023-04-09T04:25:40.508Z,1027.14
2023-04-09T04:26:11.369Z,1027.14
2023-04-09T04:26:42.236Z,1027.14
2023-04-09T04:27:13.108Z,1027.15
2023-04-09T04:27:43.988Z,1027.14
2023-04-09T04:28:14.824Z,1027.14
2023-04-09T04:28:45.688Z,1027.14
2023-04-09T04:29:16.531Z,1027.13
2023-04-09T04:29:47.391Z,1027.13
2023-04-09T04:30:18.302Z,1027.13
2023-04-09T04:30:49.170Z,1027.12
2023-04-09T04:31:20.106Z,1027.12
2023-04-09T04:31:51.002Z,1027.12
2023-04-09T04:32:21.864Z,1027.13
2023-04-09T04:32:52.764Z,1027.12
2023-04-09T04:33:23.605Z,1027.12
2023-04-09T04:33:54.499Z,1027.12
2023-04-09T04:34:25.348Z,1027.12
2023-04-09T04:34:56.219Z,1027.12
2023-04-09T04:35:27.116Z,1027.12
2023-04-09T04:36:28.868Z,1027.12
2023-04-09T04:36:59.713Z,1027.11
2023-04-09T04:37:30.586Z,1027.11
2023-04-09T04:38:01.449Z,1027.10
2023-04-09T04:38:32.335Z,1027.09
2023-04-09T04:39:03.229Z,1027.08
2023-04-09T04:39:34.101Z,1027.07
2023-04-09T04:40:04.944Z,1027.06
2023-04-09T04:40:35.795Z,1027.06
2023-04-09T04:41:06.668Z,1027.06
2023-04-09T04:41:37.550Z,1027.06
2023-04-09T04:42:08.388Z,1027.06
2023-04-09T04:42:39.242Z,1027.06
2023-04-09T04:43:10.072Z,1027.06
2023-04-09T04:43:40.913Z,1027.06
2023-04-09T04:44:11.786Z,1027.06
2023-04-09T04:44:42.659Z,1027.07
2023-04-09T04:45:13.562Z,1027.07
2023-04-09T04:45:44.462Z,1027.07
2023-04-09T04:46:15.434Z,1027.07
2023-04-09T04:46:45.899Z,1027.07
2023-04-09T04:47:16.749Z,1027.07
2023-04-09T04:47:47.639Z,1027.08
2023-04-09T04:48:18.497Z,1027.08
2023-04-09T04:48:49.388Z,1027.08
2023-04-09T04:49:22.539Z,1027.09
2023-04-09T04:49:50.899Z,1027.09
2023-04-09T04:50:21.783Z,1027.10
2023-04-09T04:50:52.674Z,1027.10
2023-04-09T04:51:23.530Z,1027.12
2023-04-09T04:51:54.413Z,1027.13
2023-04-09T04:52:25.271Z,1027.16
2023-04-09T04:52:56.152Z,1027.18
2023-04-09T04:53:57.877Z,1027.25
2023-04-09T04:54:28.746Z,1027.30
2023-04-09T04:54:59.610Z,1027.36
2023-04-09T04:55:30.493Z,1027.40
2023-04-09T04:56:01.376Z,1027.45
2023-04-09T04:56:32.283Z,1027.48
2023-04-09T04:57:03.130Z,1027.50
2023-04-09T04:57:33.980Z,1027.52
2023-04-09T04:58:04.853Z,1027.52
2023-04-09T04:58:35.705Z,1027.53
2023-04-09T04:59:06.535Z,1027.51
2023-04-09T04:59:37.412Z,1027.56
2023-04-09T05:00:08.270Z,1027.51
2023-04-09T05:00:39.112Z,1027.54
2023-04-09T05:01:09.979Z,1027.53
2023-04-09T05:01:40.969Z,1027.52
2023-04-09T05:02:11.440Z,1027.52
2023-04-09T05:02:42.490Z,1027.52
2023-04-09T05:03:13.029Z,1027.52
2023-04-09T05:03:44.156Z,1027.55
2023-04-09T05:04:14.632Z,1027.56
2023-04-09T05:04:45.558Z,1027.58
2023-04-09T05:05:16.422Z,1027.59
2023-04-09T05:05:47.299Z,1027.60
2023-04-09T05:06:18.198Z,1027.60
2023-04-09T05:06:49.054Z,1027.63
2023-04-09T05:07:19.904Z,1027.61
2023-04-09T05:07:50.760Z,1027.62
2023-04-09T05:08:21.629Z,1027.63
2023-04-09T05:08:52.728Z,1027.65
2023-04-09T05:09:23.166Z,1027.63
2023-04-09T05:09:54.024Z,1027.64
2023-04-09T05:10:24.940Z,1027.64
2023-04-09T05:10:55.814Z,1027.64
2023-04-09T05:11:26.652Z,1027.64
2023-04-09T05:11:57.529Z,1027.64
2023-04-09T05:12:28.395Z,1027.66
2023-04-09T05:12:59.248Z,1027.65
2023-04-09T05:13:30.106Z,1027.66
2023-04-09T05:14:00.988Z,1027.65
2023-04-09T05:14:31.854Z,1027.66
2023-04-09T05:15:02.721Z,1027.66
2023-04-09T05:15:33.626Z,1027.65
2023-04-09T05:16:04.471Z,1027.66
2023-04-09T05:16:35.360Z,1027.66
2023-04-09T05:17:06.235Z,1027.67
2023-04-09T05:17:37.138Z,1027.64
2023-04-09T05:18:07.992Z,1027.67
2023-04-09T05:18:38.893Z,1027.66
2023-04-09T05:19:40.609Z,1027.67
2023-04-09T05:20:11.448Z,1027.67
2023-04-09T05:20:42.310Z,1027.68
2023-04-09T05:21:13.173Z,1027.68
2023-04-09T05:21:45.124Z,1027.68
2023-04-09T05:22:14.684Z,1027.69
2023-04-09T05:22:45.566Z,1027.69
2023-04-09T05:23:16.431Z,1027.69
2023-04-09T05:23:47.265Z,1027.70
2023-04-09T05:24:18.126Z,1027.70
2023-04-09T05:24:48.997Z,1027.71
2023-04-09T05:25:19.844Z,1027.70
2023-04-09T05:25:50.760Z,1027.70
2023-04-09T05:26:21.620Z,1027.70
2023-04-09T05:26:52.468Z,1027.70
2023-04-09T05:27:23.318Z,1027.70
2023-04-09T05:27:54.179Z,1027.70
2023-04-09T05:28:25.043Z,1027.73
2023-04-09T05:28:55.907Z,1027.72
2023-04-09T05:29:26.804Z,1027.71
2023-04-09T05:29:59.592Z,1027.73
2023-04-09T05:30:28.554Z,1027.72
2023-04-09T05:30:59.474Z,1027.71
2023-04-09T05:31:30.345Z,1027.71
2023-04-09T05:32:32.046Z,1027.70
2023-04-09T05:33:02.947Z,1027.69
2023-04-09T05:33:33.777Z,1027.69
2023-04-09T05:34:04.684Z,1027.68
2023-04-09T05:34:35.549Z,1027.68
2023-04-09T05:35:06.421Z,1027.68
2023-04-09T05:35:37.323Z,1027.67
2023-04-09T05:36:08.196Z,1027.66
2023-04-09T05:36:39.057Z,1027.66
2023-04-09T05:37:09.937Z,1027.66
2023-04-09T05:37:40.793Z,1027.67
2023-04-09T05:38:11.662Z,1027.67
2023-04-09T05:38:42.560Z,1027.68
2023-04-09T05:39:13.475Z,1027.68
2023-04-09T05:39:44.343Z,1027.69
2023-04-09T05:40:15.212Z,1027.69
2023-04-09T05:40:46.091Z,1027.69
2023-04-09T05:41:16.960Z,1027.69
2023-04-09T05:41:47.832Z,1027.69
2023-04-09T05:42:18.693Z,1027.69
2023-04-09T05:42:49.603Z,1027.69
2023-04-09T05:43:20.436Z,1027.69
2023-04-09T05:43:51.648Z,1027.69
2023-04-09T05:44:22.162Z,1027.69
2023-04-09T05:44:53.015Z,1027.68
2023-04-09T05:45:23.890Z,1027.68
2023-04-09T05:45:54.791Z,1027.68
2023-04-09T05:46:25.721Z,1027.68
2023-04-09T05:46:56.632Z,1027.68
2023-04-09T05:47:27.514Z,1027.68
2023-04-09T05:47:58.450Z,1027.67
2023-04-09T05:48:29.337Z,1027.67
2023-04-09T05:49:00.252Z,1027.67
2023-04-09T05:50:01.858Z,1027.66
2023-04-09T05:50:38.188Z,1027.66
2023-04-09T05:51:03.493Z,1027.66
2023-04-09T05:51:34.346Z,1027.66
2023-04-09T05:52:05.209Z,1027.67
2023-04-09T05:52:36.103Z,1027.68
2023-04-09T05:53:06.952Z,1027.69
2023-04-09T05:53:37.826Z,1027.69
2023-04-09T05:54:08.673Z,1027.70
2023-04-09T05:54:39.526Z,1027.71
2023-04-09T05:55:10.377Z,1027.72
2023-04-09T05:55:41.266Z,1027.73
2023-04-09T05:56:12.170Z,1027.73
2023-04-09T05:56:43.048Z,1027.73
2023-04-09T05:57:13.901Z,1027.75
2023-04-09T05:57:44.748Z,1027.75
2023-04-09T05:58:15.603Z,1027.76
2023-04-09T05:58:46.445Z,1027.77
2023-04-09T05:59:17.279Z,1027.77
2023-04-09T05:59:48.108Z,1027.77
2023-04-09T06:00:18.975Z,1027.78
2023-04-09T06:00:49.845Z,1027.79
2023-04-09T06:01:20.683Z,1027.79
2023-04-09T06:01:51.577Z,1027.79
2023-04-09T06:02:53.405Z,1027.80
2023-04-09T06:03:23.968Z,1027.80
2023-04-09T06:03:57.142Z,1027.80
2023-04-09T06:04:25.134Z,1027.80
2023-04-09T06:04:55.624Z,1027.80
2023-04-09T06:05:26.035Z,1027.80
2023-04-09T06:05:56.989Z,1027.80
2023-04-09T06:06:27.841Z,1027.80
2023-04-09T06:06:58.702Z,1027.81
2023-04-09T06:07:29.571Z,1027.81
2023-04-09T06:08:00.486Z,1027.81
2023-04-09T06:08:31.365Z,1027.81
2023-04-09T06:09:02.211Z,1027.80
2023-04-09T06:09:33.061Z,1027.80
2023-04-09T06:10:03.957Z,1027.80
2023-04-09T06:10:34.811Z,1027.80
2023-04-09T06:11:05.663Z,1027.80
2023-04-09T06:11:36.502Z,1027.79
2023-04-09T06:12:07.397Z,1027.81
2023-04-09T06:12:38.246Z,1027.81
2023-04-09T06:13:09.144Z,1027.82
2023-04-09T06:13:39.995Z,1027.83
2023-04-09T06:14:10.878Z,1027.84
2023-04-09T06:14:41.722Z,1027.84
2023-04-09T06:15:12.584Z,1027.84
2023-04-09T06:15:43.558Z,1027.84
2023-04-09T06:16:14.483Z,1027.83
2023-04-09T06:16:45.410Z,1027.84
2023-04-09T06:17:16.272Z,1027.85
2023-04-09T06:17:47.169Z,1027.86
2023-04-09T06:18:18.052Z,1027.86
2023-04-09T06:18:48.913Z,1027.86
2023-04-09T06:19:19.888Z,1027.87
2023-04-09T06:19:50.735Z,1027.87
2023-04-09T06:20:21.580Z,1027.87
2023-04-09T06:20:52.438Z,1027.87
2023-04-09T06:21:23.289Z,1027.87
2023-04-09T06:21:54.222Z,1027.87
2023-04-09T06:22:25.053Z,1027.88
2023-04-09T06:22:55.923Z,1027.87
2023-04-09T06:23:57.609Z,1027.87
2023-04-09T06:24:28.526Z,1027.86
2023-04-09T06:24:59.392Z,1027.86
2023-04-09T06:25:30.262Z,1027.87